Clenchwarton, United Kingdom
Current Conditions -  °F | °C
As of 1:50 PM on Monday 20 Oct 2014 (Local Time) from EGYM Reporting Station
Broken Clouds Broken Clouds  
Wind Chill: 59°   Ceiling: 10000
Heat Index: 59°   Visibility: 6mi
Dew Point: 50°   Wind: 17mph
Humidity: 72%   Direction: 230°SW
Pressure: 29.91"   Gusts: NA
Location:  52.76°N, 0.36°E
Report Text: EGYM 201250Z 23015KT 9999 FEW025 BKN100 15/10 Q1013 BLU NOSIG
Loading
Personal Weather Stations






























Interactive Weather Map
Tropical Storm Tracking
New forecast layout! Learn more

10-Day Weather Forecast

Advertisements
Track Severe Weather on mobile